createdAt,value
2018-10-05T00:00:10.569Z,10.10
2018-10-05T00:02:38.145Z,10.00
2018-10-05T00:05:05.817Z,10.00
2018-10-05T00:07:33.401Z,9.90
2018-10-05T00:10:00.972Z,9.90
2018-10-05T00:12:28.581Z,9.90
2018-10-05T00:14:56.709Z,9.90
2018-10-05T00:17:24.677Z,9.90
2018-10-05T00:19:52.248Z,9.90
2018-10-05T00:22:19.904Z,9.90
2018-10-05T00:24:47.654Z,9.90
2018-10-05T00:27:16.398Z,9.90
2018-10-05T00:29:43.980Z,9.80
2018-10-05T00:32:11.574Z,9.80
2018-10-05T00:34:39.133Z,9.80
2018-10-05T00:37:06.742Z,9.70
2018-10-05T00:39:34.313Z,9.70
2018-10-05T00:42:01.907Z,9.70
2018-10-05T00:44:29.489Z,9.70
2018-10-05T00:46:57.416Z,9.60
2018-10-05T00:49:25.265Z,9.60
2018-10-05T00:51:52.854Z,9.60
2018-10-05T00:54:20.432Z,9.50
2018-10-05T00:56:48.025Z,9.50
2018-10-05T00:59:15.609Z,9.50
2018-10-05T01:01:43.256Z,9.50
2018-10-05T01:04:10.988Z,9.50
2018-10-05T01:06:38.613Z,9.60
2018-10-05T01:09:07.134Z,9.60
2018-10-05T01:11:34.751Z,9.60
2018-10-05T01:14:02.389Z,9.50
2018-10-05T01:16:30.014Z,9.50
2018-10-05T01:18:57.630Z,9.50
2018-10-05T01:21:25.542Z,9.40
2018-10-05T01:23:53.117Z,9.50
2018-10-05T01:26:20.695Z,9.50
2018-10-05T01:28:48.289Z,9.50
2018-10-05T01:31:15.873Z,9.50
2018-10-05T01:33:43.457Z,9.50
2018-10-05T01:36:11.194Z,9.50
2018-10-05T01:38:38.804Z,9.40
2018-10-05T01:41:06.445Z,9.30
2018-10-05T01:43:34.036Z,9.30
2018-10-05T01:46:01.714Z,9.30
2018-10-05T01:48:29.324Z,9.30
2018-10-05T01:50:56.893Z,9.20
2018-10-05T01:53:24.505Z,9.20
2018-10-05T01:55:52.108Z,9.10
2018-10-05T01:58:20.666Z,9.10
2018-10-05T02:00:48.606Z,9.10
2018-10-05T02:03:16.247Z,9.10
2018-10-05T02:05:43.797Z,9.10
2018-10-05T02:08:11.432Z,9.00
2018-10-05T02:10:39.664Z,9.00
2018-10-05T02:13:07.316Z,8.90
2018-10-05T02:15:35.166Z,8.80
2018-10-05T02:18:03.325Z,8.80
2018-10-05T02:20:30.905Z,8.80
2018-10-05T02:22:58.480Z,8.90
2018-10-05T02:25:26.034Z,8.80
2018-10-05T02:27:53.893Z,8.90
2018-10-05T02:30:21.469Z,8.90
2018-10-05T02:32:49.128Z,8.90
2018-10-05T02:35:16.827Z,9.00
2018-10-05T02:37:45.041Z,9.00
2018-10-05T02:40:12.616Z,9.00
2018-10-05T02:42:40.222Z,8.90
2018-10-05T02:45:07.813Z,8.80
2018-10-05T02:47:35.389Z,8.90
2018-10-05T02:50:03.611Z,8.80
2018-10-05T02:52:31.732Z,8.80
2018-10-05T02:54:59.301Z,8.80
2018-10-05T02:57:26.917Z,8.90
2018-10-05T02:59:54.498Z,8.80
2018-10-05T03:02:32.989Z,8.80
2018-10-05T03:05:01.486Z,8.80
2018-10-05T03:07:30.126Z,8.70
2018-10-05T03:09:58.765Z,8.70
2018-10-05T03:12:26.518Z,8.70
2018-10-05T03:14:54.103Z,8.70
2018-10-05T03:17:21.674Z,8.80
2018-10-05T03:19:49.357Z,8.70
2018-10-05T03:22:16.865Z,8.70
2018-10-05T03:24:44.492Z,8.70
2018-10-05T03:27:12.078Z,8.60
2018-10-05T03:29:39.674Z,8.60
2018-10-05T03:32:07.265Z,8.60
2018-10-05T03:34:34.862Z,8.50
2018-10-05T03:37:02.424Z,8.50
2018-10-05T03:39:33.845Z,8.60
2018-10-05T03:42:01.753Z,8.50
2018-10-05T03:44:29.347Z,8.60
2018-10-05T03:46:56.933Z,8.60
2018-10-05T03:49:24.525Z,8.60
2018-10-05T03:51:52.187Z,8.60
2018-10-05T03:54:19.753Z,8.60
2018-10-05T03:56:47.392Z,8.50
2018-10-05T03:59:14.970Z,8.50
2018-10-05T04:01:43.465Z,8.50
2018-10-05T04:04:11.122Z,8.50
2018-10-05T04:06:38.721Z,8.50
2018-10-05T04:09:07.836Z,8.50
2018-10-05T04:11:35.457Z,8.50
2018-10-05T04:14:03.149Z,8.40
2018-10-05T04:16:30.730Z,8.40
2018-10-05T04:18:58.377Z,8.40
2018-10-05T04:21:25.941Z,8.40
2018-10-05T04:23:53.587Z,8.40
2018-10-05T04:26:21.154Z,8.40
2018-10-05T04:28:48.770Z,8.40
2018-10-05T04:31:17.322Z,8.40
2018-10-05T04:33:44.999Z,8.40
2018-10-05T04:36:12.850Z,8.50
2018-10-05T04:38:40.441Z,8.50
2018-10-05T04:41:08.074Z,8.50
2018-10-05T04:43:35.708Z,8.60
2018-10-05T04:46:04.692Z,8.50
2018-10-05T04:48:32.360Z,8.60
2018-10-05T04:51:00.025Z,8.60
2018-10-05T04:53:27.826Z,8.50
2018-10-05T04:55:55.406Z,8.50
2018-10-05T04:58:22.966Z,8.50
2018-10-05T05:00:50.546Z,8.50
2018-10-05T05:03:18.119Z,8.40
2018-10-05T05:05:45.704Z,8.50
2018-10-05T05:08:13.333Z,8.40
2018-10-05T05:10:40.957Z,8.40
2018-10-05T05:13:08.542Z,8.40
2018-10-05T05:15:37.484Z,8.40
2018-10-05T05:18:05.197Z,8.30
2018-10-05T05:20:32.794Z,8.20
2018-10-05T05:23:00.914Z,8.20
2018-10-05T05:25:28.493Z,8.20
2018-10-05T05:27:56.089Z,8.30
2018-10-05T05:30:23.713Z,8.30
2018-10-05T05:32:51.337Z,8.30
2018-10-05T05:35:18.913Z,8.30
2018-10-05T05:37:46.473Z,8.30
2018-10-05T05:40:14.160Z,8.30
2018-10-05T05:42:41.717Z,8.40
2018-10-05T05:45:09.925Z,8.40
2018-10-05T05:47:37.645Z,8.50
2018-10-05T05:50:05.325Z,8.50
2018-10-05T05:52:32.881Z,8.50
2018-10-05T05:55:01.093Z,8.50
2018-10-05T05:57:28.831Z,8.50
2018-10-05T05:59:56.413Z,8.40
2018-10-05T06:02:24.026Z,8.50
2018-10-05T06:04:51.751Z,8.60
2018-10-05T06:07:19.349Z,8.60
2018-10-05T06:09:46.930Z,8.60
2018-10-05T06:12:14.630Z,8.70
2018-10-05T06:14:42.245Z,8.80
2018-10-05T06:17:09.885Z,8.80
2018-10-05T06:19:37.913Z,8.90
2018-10-05T06:22:06.142Z,9.00
2018-10-05T06:24:34.666Z,8.90
2018-10-05T06:27:02.301Z,9.00
2018-10-05T06:29:29.876Z,9.10
2018-10-05T06:31:57.900Z,9.10
2018-10-05T06:34:25.482Z,9.10
2018-10-05T06:36:53.080Z,9.30
2018-10-05T06:39:20.648Z,9.30
2018-10-05T06:41:48.229Z,9.40
2018-10-05T06:44:15.813Z,9.50
2018-10-05T06:46:43.404Z,9.60
2018-10-05T06:49:10.944Z,9.70
2018-10-05T06:51:38.717Z,9.80
2018-10-05T06:54:06.354Z,9.90
2018-10-05T06:56:33.912Z,10.00
2018-10-05T06:59:01.482Z,10.10
2018-10-05T07:01:29.214Z,10.10
2018-10-05T07:03:56.716Z,10.20
2018-10-05T07:06:24.302Z,10.20
2018-10-05T07:08:51.852Z,10.40
2018-10-05T07:11:19.500Z,10.50
2018-10-05T07:13:47.043Z,10.60
2018-10-05T07:16:14.674Z,10.70
2018-10-05T07:18:42.237Z,10.80
2018-10-05T07:21:11.020Z,10.90
2018-10-05T07:23:38.592Z,11.00
2018-10-05T07:26:06.425Z,11.10
2018-10-05T07:28:34.222Z,11.30
2018-10-05T07:31:01.605Z,11.30
2018-10-05T07:33:29.184Z,11.40
2018-10-05T07:35:56.962Z,11.50
2018-10-05T07:38:24.533Z,11.50
2018-10-05T07:40:52.116Z,11.70
2018-10-05T07:43:19.810Z,11.80
2018-10-05T07:45:47.439Z,11.90
2018-10-05T07:48:15.017Z,12.10
2018-10-05T07:50:42.729Z,12.20
2018-10-05T07:53:10.305Z,12.40
2018-10-05T07:55:37.876Z,12.40
2018-10-05T07:58:05.451Z,12.50
2018-10-05T08:00:33.014Z,12.70
2018-10-05T08:03:00.598Z,12.90
2018-10-05T08:05:28.152Z,12.90
2018-10-05T08:07:55.722Z,13.00
2018-10-05T08:10:23.309Z,13.00
2018-10-05T08:12:50.888Z,13.10
2018-10-05T08:15:18.445Z,13.20
2018-10-05T08:17:46.727Z,13.20
2018-10-05T08:20:14.763Z,13.20
2018-10-05T08:22:42.525Z,13.30
2018-10-05T08:25:10.981Z,13.50
2018-10-05T08:27:38.614Z,13.60
2018-10-05T08:30:06.569Z,13.70
2018-10-05T08:32:35.250Z,13.70
2018-10-05T08:35:02.921Z,13.90
2018-10-05T08:37:30.545Z,14.10
2018-10-05T08:39:58.199Z,14.10
2018-10-05T08:42:25.709Z,14.10
2018-10-05T08:44:53.267Z,14.20
2018-10-05T08:47:20.972Z,14.30
2018-10-05T08:49:48.529Z,14.40
2018-10-05T08:52:16.202Z,14.50
2018-10-05T08:54:43.717Z,14.50
2018-10-05T08:57:12.126Z,14.70
2018-10-05T08:59:40.265Z,14.90
2018-10-05T09:02:07.958Z,15.00
2018-10-05T09:04:35.528Z,15.10
2018-10-05T09:07:03.145Z,15.30
2018-10-05T09:09:30.724Z,15.40
2018-10-05T09:11:58.304Z,15.60
2018-10-05T09:14:25.961Z,15.70
2018-10-05T09:16:53.528Z,15.80
2018-10-05T09:19:21.097Z,15.90
2018-10-05T09:21:48.914Z,15.90
2018-10-05T09:24:16.676Z,16.00
2018-10-05T09:26:44.321Z,16.10
2018-10-05T09:29:11.925Z,16.20
2018-10-05T09:31:41.586Z,16.30
2018-10-05T09:34:09.231Z,16.40
2018-10-05T09:36:36.778Z,16.50
2018-10-05T09:39:05.568Z,16.60
2018-10-05T09:41:33.132Z,16.60
2018-10-05T09:44:00.882Z,16.80
2018-10-05T09:46:28.469Z,17.00
2018-10-05T09:48:59.553Z,17.10
2018-10-05T09:51:27.200Z,17.20
2018-10-05T09:53:55.572Z,17.20
2018-10-05T09:56:23.217Z,17.30
2018-10-05T09:58:50.921Z,17.30
2018-10-05T10:01:25.032Z,17.40
2018-10-05T10:03:52.629Z,17.50
2018-10-05T10:06:20.180Z,17.50
2018-10-05T10:08:47.818Z,17.70
2018-10-05T10:14:14.398Z,17.90
2018-10-05T10:16:41.957Z,18.00
2018-10-05T10:19:09.525Z,18.10
2018-10-05T10:21:37.069Z,18.30
2018-10-05T10:24:04.641Z,18.40
2018-10-05T10:26:32.213Z,18.40
2018-10-05T10:28:59.799Z,18.50
2018-10-05T10:31:27.343Z,18.50
2018-10-05T10:33:54.954Z,18.60
2018-10-05T10:36:22.529Z,18.70
2018-10-05T10:38:50.297Z,18.80
2018-10-05T10:41:18.457Z,18.90
2018-10-05T10:43:46.097Z,19.00
2018-10-05T10:46:13.707Z,19.00
2018-10-05T10:48:41.276Z,19.10
2018-10-05T10:51:08.902Z,19.30
2018-10-05T10:53:36.475Z,19.40
2018-10-05T10:56:04.030Z,19.60
2018-10-05T10:58:31.619Z,19.60
2018-10-05T11:00:59.180Z,19.60
2018-10-05T11:03:26.742Z,19.80
2018-10-05T11:05:54.302Z,19.80
2018-10-05T11:08:21.881Z,19.90
2018-10-05T11:10:50.861Z,20.10
2018-10-05T11:13:18.433Z,20.10
2018-10-05T11:15:45.982Z,20.30
2018-10-05T11:18:13.805Z,20.40
2018-10-05T11:20:41.329Z,20.50
2018-10-05T11:23:08.921Z,20.60
2018-10-05T11:25:36.483Z,20.70
2018-10-05T11:28:04.074Z,20.80
2018-10-05T11:30:31.660Z,20.90
2018-10-05T11:32:59.209Z,21.00
2018-10-05T11:35:26.869Z,21.00
2018-10-05T11:37:54.421Z,21.10
2018-10-05T11:40:21.989Z,21.20
2018-10-05T11:42:49.670Z,21.30
2018-10-05T11:45:17.345Z,21.40
2018-10-05T11:47:44.899Z,21.50
2018-10-05T11:50:12.505Z,21.60
2018-10-05T11:52:40.082Z,21.70
2018-10-05T11:55:07.702Z,21.80
2018-10-05T11:57:35.262Z,21.80
2018-10-05T12:00:02.988Z,22.00
2018-10-05T12:02:30.579Z,22.00
2018-10-05T12:04:58.152Z,22.20
2018-10-05T12:07:26.562Z,22.20
2018-10-05T12:09:54.125Z,22.30
2018-10-05T12:12:21.719Z,22.50
2018-10-05T12:14:49.321Z,22.60
2018-10-05T12:17:16.865Z,22.60
2018-10-05T12:19:44.446Z,22.80
2018-10-05T12:22:12.023Z,22.90
2018-10-05T12:24:39.629Z,23.10
2018-10-05T12:27:07.218Z,23.10
2018-10-05T12:29:34.796Z,23.30
2018-10-05T12:32:02.364Z,23.30
2018-10-05T12:34:29.949Z,23.30
2018-10-05T12:36:57.493Z,23.40
2018-10-05T12:39:25.060Z,23.50
2018-10-05T12:41:52.703Z,23.60
2018-10-05T12:44:20.442Z,23.60
2018-10-05T12:46:48.035Z,23.60
2018-10-05T12:49:15.634Z,23.70
2018-10-05T12:51:43.170Z,23.80
2018-10-05T12:54:10.766Z,24.00
2018-10-05T12:56:38.335Z,24.10
2018-10-05T12:59:06.749Z,24.20
2018-10-05T13:01:34.342Z,24.30
2018-10-05T13:04:01.891Z,24.30
2018-10-05T13:06:29.477Z,24.50
2018-10-05T13:08:57.113Z,24.60
2018-10-05T13:11:24.672Z,24.70
2018-10-05T13:13:52.267Z,24.70
2018-10-05T13:16:20.663Z,24.60
2018-10-05T13:18:48.250Z,24.70
2018-10-05T13:21:15.822Z,24.60
2018-10-05T13:23:43.366Z,24.80
2018-10-05T13:26:10.953Z,24.90
2018-10-05T13:31:06.409Z,25.10
2018-10-05T13:33:34.845Z,25.20
2018-10-05T13:36:02.450Z,25.20
2018-10-05T13:38:29.988Z,25.20
2018-10-05T13:43:38.589Z,25.20
2018-10-05T13:46:07.081Z,25.50
2018-10-05T13:48:34.657Z,25.60
2018-10-05T13:51:05.305Z,25.60
2018-10-05T13:53:32.859Z,25.70
2018-10-05T13:56:00.453Z,25.90
2018-10-05T13:58:28.009Z,26.10
2018-10-05T14:00:55.592Z,26.00
2018-10-05T14:03:23.151Z,26.20
2018-10-05T14:05:50.785Z,26.50
2018-10-05T14:08:18.413Z,27.10
2018-10-05T14:10:46.050Z,27.80
2018-10-05T14:13:14.129Z,29.10
2018-10-05T14:15:41.930Z,30.10
2018-10-05T14:18:09.499Z,31.60
2018-10-05T14:20:37.709Z,33.20
2018-10-05T14:23:05.293Z,34.80
2018-10-05T14:25:32.903Z,35.80
2018-10-05T14:28:01.338Z,36.40
2018-10-05T14:30:28.914Z,37.40
2018-10-05T14:32:56.498Z,38.20
2018-10-05T14:35:24.057Z,38.90
2018-10-05T14:37:52.143Z,39.50
2018-10-05T14:40:19.870Z,39.30
2018-10-05T14:42:47.563Z,38.90
2018-10-05T14:45:15.145Z,39.70
2018-10-05T14:47:43.289Z,40.10
2018-10-05T14:50:10.937Z,38.10
2018-10-05T14:52:38.543Z,38.40
2018-10-05T14:55:06.587Z,37.90
2018-10-05T14:57:34.259Z,38.40
2018-10-05T15:00:01.770Z,38.20
2018-10-05T15:02:29.377Z,38.00
2018-10-05T15:04:57.014Z,38.20
2018-10-05T15:07:24.650Z,37.70
2018-10-05T15:09:55.247Z,36.30
2018-10-05T15:12:22.874Z,36.60
2018-10-05T15:14:50.449Z,35.90
2018-10-05T15:17:18.045Z,35.40
2018-10-05T15:19:45.829Z,35.70
2018-10-05T15:22:13.454Z,36.10
2018-10-05T15:24:41.069Z,36.20
2018-10-05T15:27:09.238Z,35.30
2018-10-05T15:29:36.887Z,35.20
2018-10-05T15:32:04.766Z,35.30
2018-10-05T15:34:32.325Z,35.50
2018-10-05T15:37:01.529Z,35.50
2018-10-05T15:39:29.114Z,36.20
2018-10-05T15:41:56.677Z,35.40
2018-10-05T15:44:25.240Z,35.30
2018-10-05T15:46:55.541Z,34.60
2018-10-05T15:49:23.141Z,34.60
2018-10-05T15:51:50.735Z,34.80
2018-10-05T15:54:18.333Z,34.10
2018-10-05T15:56:46.007Z,33.80
2018-10-05T15:59:13.719Z,33.40
2018-10-05T16:01:41.273Z,32.90
2018-10-05T16:04:08.833Z,33.00
2018-10-05T16:06:36.409Z,32.40
2018-10-05T16:09:05.557Z,32.40
2018-10-05T16:11:33.979Z,32.10
2018-10-05T16:14:01.806Z,32.00
2018-10-05T16:16:30.290Z,31.50
2018-10-05T16:18:57.876Z,31.40
2018-10-05T16:21:25.433Z,31.60
2018-10-05T16:23:53.657Z,31.50
2018-10-05T16:26:21.399Z,31.50
2018-10-05T16:28:49.997Z,31.20
2018-10-05T16:31:17.577Z,30.60
2018-10-05T16:33:48.024Z,28.70
2018-10-05T16:36:16.872Z,27.20
2018-10-05T16:38:44.465Z,25.90
2018-10-05T16:41:12.145Z,24.70
2018-10-05T16:43:40.550Z,23.80
2018-10-05T16:46:08.234Z,23.10
2018-10-05T16:48:35.797Z,22.40
2018-10-05T16:51:03.483Z,22.00
2018-10-05T16:53:31.075Z,21.70
2018-10-05T16:55:58.632Z,21.30
2018-10-05T16:58:26.181Z,21.00
2018-10-05T17:00:53.767Z,20.80
2018-10-05T17:03:21.329Z,20.60
2018-10-05T17:05:48.869Z,20.50
2018-10-05T17:08:18.184Z,20.40
2018-10-05T17:10:45.899Z,20.30
2018-10-05T17:13:13.463Z,20.20
2018-10-05T17:15:41.061Z,20.10
2018-10-05T17:18:08.651Z,20.00
2018-10-05T17:20:36.266Z,19.80
2018-10-05T17:23:03.905Z,19.80
2018-10-05T17:25:31.601Z,19.70
2018-10-05T17:27:59.148Z,19.60
2018-10-05T17:30:26.759Z,19.60
2018-10-05T17:32:54.427Z,19.50
2018-10-05T17:35:22.021Z,19.40
2018-10-05T17:37:49.615Z,19.40
2018-10-05T17:40:17.322Z,19.40
2018-10-05T17:42:44.886Z,19.30
2018-10-05T17:45:12.566Z,19.30
2018-10-05T17:47:40.122Z,19.20
2018-10-05T17:50:07.875Z,19.20
2018-10-05T17:52:36.233Z,19.10
2018-10-05T17:55:03.919Z,19.10
2018-10-05T17:57:31.842Z,19.00
2018-10-05T18:00:00.173Z,19.00
2018-10-05T18:02:27.810Z,19.00
2018-10-05T18:04:55.465Z,18.90
2018-10-05T18:07:24.953Z,18.80
2018-10-05T18:09:52.541Z,18.80
2018-10-05T18:12:20.160Z,18.70
2018-10-05T18:14:47.758Z,18.60
2018-10-05T18:17:15.276Z,18.60
2018-10-05T18:19:43.620Z,18.50
2018-10-05T18:22:11.279Z,18.40
2018-10-05T18:24:39.697Z,18.30
2018-10-05T18:27:07.410Z,18.20
2018-10-05T18:29:35.163Z,18.10
2018-10-05T18:32:02.950Z,18.00
2018-10-05T18:34:30.522Z,18.00
2018-10-05T18:36:58.387Z,17.80
2018-10-05T18:39:25.989Z,17.80
2018-10-05T18:41:53.574Z,17.70
2018-10-05T18:44:21.268Z,17.60
2018-10-05T18:46:48.822Z,17.40
2018-10-05T18:49:16.366Z,17.40
2018-10-05T18:51:46.833Z,17.30
2018-10-05T18:54:14.381Z,17.10
2018-10-05T18:56:53.173Z,17.00
2018-10-05T18:59:21.201Z,16.90
2018-10-05T19:01:48.788Z,16.80
2018-10-05T19:04:16.335Z,16.70
2018-10-05T19:06:43.938Z,16.70
2018-10-05T19:09:11.746Z,16.60
2018-10-05T19:11:39.304Z,16.60
2018-10-05T19:14:06.898Z,16.40
2018-10-05T19:16:34.510Z,16.30
2018-10-05T19:19:02.249Z,16.30
2018-10-05T19:21:29.837Z,16.20
2018-10-05T19:23:57.421Z,16.20
2018-10-05T19:26:25.234Z,16.10
2018-10-05T19:28:52.754Z,16.10
2018-10-05T19:31:20.729Z,16.10
2018-10-05T19:33:48.274Z,16.10
2018-10-05T19:36:15.948Z,16.10
2018-10-05T19:38:43.449Z,16.00
2018-10-05T19:41:11.074Z,16.00
2018-10-05T19:43:38.665Z,16.00
2018-10-05T19:46:06.311Z,15.90
2018-10-05T19:48:33.873Z,15.90
2018-10-05T19:51:01.990Z,15.80
2018-10-05T19:54:32.304Z,15.80
2018-10-05T19:56:59.900Z,15.70
2018-10-05T19:59:27.464Z,15.70
2018-10-05T20:01:55.223Z,15.70
2018-10-05T20:04:22.871Z,15.70
2018-10-05T20:06:50.449Z,15.70
2018-10-05T20:09:18.203Z,15.60
2018-10-05T20:11:45.925Z,15.50
2018-10-05T20:14:13.471Z,15.50
2018-10-05T20:16:41.042Z,15.40
2018-10-05T20:19:08.653Z,15.40
2018-10-05T20:21:36.226Z,15.30
2018-10-05T20:24:03.833Z,15.30
2018-10-05T20:26:31.675Z,15.20
2018-10-05T20:28:59.270Z,15.20
2018-10-05T20:31:26.861Z,15.20
2018-10-05T20:33:54.445Z,15.10
2018-10-05T20:36:24.256Z,15.00
2018-10-05T20:38:52.438Z,15.00
2018-10-05T20:41:20.589Z,15.00
2018-10-05T20:43:48.190Z,15.00
2018-10-05T20:46:16.454Z,14.90
2018-10-05T20:48:44.744Z,14.90
2018-10-05T20:51:12.975Z,14.90
2018-10-05T20:53:41.273Z,14.80
2018-10-05T20:56:09.643Z,14.70
2018-10-05T20:58:37.817Z,14.70
2018-10-05T21:01:06.117Z,14.60
2018-10-05T21:03:34.310Z,14.40
2018-10-05T21:06:02.169Z,14.40
2018-10-05T21:08:29.925Z,14.30
2018-10-05T21:10:57.523Z,14.20
2018-10-05T21:13:25.123Z,14.20
2018-10-05T21:15:52.669Z,14.10
2018-10-05T21:18:20.250Z,14.10
2018-10-05T21:20:47.811Z,14.00
2018-10-05T21:23:15.405Z,14.00
2018-10-05T21:25:42.965Z,13.90
2018-10-05T21:28:10.570Z,13.90
2018-10-05T21:30:38.133Z,13.90
2018-10-05T21:33:06.509Z,13.80
2018-10-05T21:35:34.062Z,13.70
2018-10-05T21:38:01.712Z,13.60
2018-10-05T21:40:29.265Z,13.60
2018-10-05T21:42:56.849Z,13.60
2018-10-05T21:45:24.453Z,13.50
2018-10-05T21:47:52.057Z,13.50
2018-10-05T21:50:21.153Z,13.50
2018-10-05T21:52:48.753Z,13.50
2018-10-05T21:55:16.759Z,13.40
2018-10-05T21:57:44.810Z,13.40
2018-10-05T22:00:12.488Z,13.30
2018-10-05T22:02:40.624Z,13.30
2018-10-05T22:05:08.792Z,13.30
2018-10-05T22:07:37.007Z,13.20
2018-10-05T22:10:05.725Z,13.10
2018-10-05T22:12:33.305Z,13.10
2018-10-05T22:15:00.909Z,13.10
2018-10-05T22:17:28.555Z,13.10
2018-10-05T22:19:56.285Z,13.00
2018-10-05T22:22:24.617Z,13.00
2018-10-05T22:24:52.820Z,12.90
2018-10-05T22:27:20.397Z,12.90
2018-10-05T22:29:49.734Z,12.90
2018-10-05T22:32:17.884Z,12.90
2018-10-05T22:34:46.045Z,12.80
2018-10-05T22:37:13.623Z,12.80
2018-10-05T22:39:41.225Z,12.70
2018-10-05T22:42:09.600Z,12.70
2018-10-05T22:44:37.813Z,12.70
2018-10-05T22:47:05.916Z,12.60
2018-10-05T22:49:35.482Z,12.60
2018-10-05T22:52:04.240Z,12.60
2018-10-05T22:54:32.096Z,12.50
2018-10-05T22:57:01.696Z,12.60
2018-10-05T22:59:29.372Z,12.70
2018-10-05T23:01:59.041Z,12.70
2018-10-05T23:04:26.708Z,12.60
2018-10-05T23:06:54.260Z,12.60
2018-10-05T23:09:22.981Z,12.60
2018-10-05T23:11:50.549Z,12.70
2018-10-05T23:14:18.114Z,12.70
2018-10-05T23:16:47.672Z,12.80
2018-10-05T23:19:15.405Z,12.70
2018-10-05T23:21:43.029Z,12.70
2018-10-05T23:24:12.340Z,12.70
2018-10-05T23:26:40.014Z,12.70
2018-10-05T23:29:07.601Z,12.60
2018-10-05T23:31:35.182Z,12.50
2018-10-05T23:34:02.777Z,12.50
2018-10-05T23:36:31.318Z,12.40
2018-10-05T23:38:59.613Z,12.40
2018-10-05T23:41:27.166Z,12.30
2018-10-05T23:43:54.813Z,12.30
2018-10-05T23:46:22.453Z,12.20
2018-10-05T23:48:50.038Z,12.20
2018-10-05T23:51:18.321Z,12.10
2018-10-05T23:53:46.770Z,12.00
2018-10-05T23:56:14.394Z,11.90
2018-10-05T23:58:42.137Z,11.90
